Time;durP1;ratioP1;P1;durP2;ratioP2;P2;SDS_P1;SDS_P2;PMS_P1;PMS_P2;Temp;Humidity;BMP_temperature;BMP_pressure;BME280_temperature;BME280_humidity;BME280_pressure;Samples;Min_cycle;Max_cycle;Signal;HPM_P1;HPM_P2
2022/09/09 00:01:10;;;;;;;;;;;21.30;50.10;;;19.37;53.34;100666.13;12260945;19;19931;-90
2022/09/09 00:05:31;;;;;;;;;;;21.20;50.00;;;19.28;53.82;100666.97;12256367;19;20315;-88
2022/09/09 00:09:59;;;;;;;;;;;21.20;50.00;;;19.14;53.75;100655.00;12259229;19;19956;-90
2022/09/09 00:14:04;;;;;;;;;;;21.10;50.00;;;19.13;53.29;100671.88;12252458;19;19919;-91
2022/09/09 00:18:35;;;;;;;;;;;21.00;49.80;;;19.07;53.50;100675.94;12257976;19;19913;-91
2022/09/09 00:22:38;;;;;;;;;;;21.00;49.90;;;18.94;53.62;100660.34;12256763;19;20004;-90
2022/09/09 00:26:54;;;;;;;;;;;20.90;49.90;;;18.86;53.53;100646.16;12257376;19;19921;-91
2022/09/09 00:31:00;;;;;;;;;;;20.80;49.80;;;18.67;53.46;100634.56;12256432;19;19982;-89
2022/09/09 00:35:15;;;;;;;;;;;20.80;49.90;;;18.91;53.76;100671.22;12256706;19;20257;-88
2022/09/09 00:39:30;;;;;;;;;;;20.70;49.90;;;18.80;53.82;100666.06;12257577;19;19915;-89
2022/09/09 00:43:36;;;;;;;;;;;20.70;49.80;;;18.69;53.90;100660.88;12255610;19;20329;-90
2022/09/09 00:47:52;;;;;;;;;;;20.60;49.90;;;18.68;53.48;100669.78;12258096;19;19907;-89
2022/09/09 00:52:07;;;;;;;;;;;20.50;49.90;;;18.57;54.09;100679.50;12256613;19;19921;-89
2022/09/09 00:56:21;;;;;;;;;;;20.40;49.80;;;18.40;53.83;100652.91;12256878;19;20010;-89
2022/09/09 01:00:31;;;;;;;;;;;20.30;49.90;;;18.47;53.66;100675.19;12255440;19;19922;-89
2022/09/09 01:04:36;;;;;;;;;;;20.30;49.90;;;17.96;53.63;100605.69;12255758;19;19923;-89
2022/09/09 01:09:04;;;;;;;;;;;20.30;50.00;;;18.27;53.92;100651.34;12256993;19;19915;-88
2022/09/09 01:13:14;;;;;;;;;;;20.30;50.00;;;18.31;53.59;100668.63;12252188;19;20250;-89
2022/09/09 01:17:28;;;;;;;;;;;20.20;49.90;;;18.28;53.52;100682.13;12254791;19;19923;-89
2022/09/09 01:21:56;;;;;;;;;;;20.10;49.80;;;18.20;53.80;100681.09;12253798;19;19915;-89
2022/09/09 01:26:23;;;;;;;;;;;20.00;50.10;;;18.13;53.74;100686.94;12250766;19;19914;-89
2022/09/09 01:30:26;;;;;;;;;;;20.00;49.80;;;18.00;53.81;100664.38;12253728;19;19953;-89
2022/09/09 01:34:35;;;;;;;;;;;19.90;49.80;;;17.96;54.02;100663.81;12253726;19;19922;-89
2022/09/09 01:38:37;;;;;;;;;;;19.90;49.80;;;17.86;53.92;100662.94;12254919;19;19919;-89
2022/09/09 01:42:39;;;;;;;;;;;19.90;49.80;;;17.55;53.81;100615.38;12251753;19;19928;-89
2022/09/09 01:46:40;;;;;;;;;;;19.70;49.70;;;17.86;53.96;100676.13;12253781;19;19933;-89
2022/09/09 01:50:49;;;;;;;;;;;19.70;49.80;;;17.82;53.97;100678.22;12251240;19;19971;-89
2022/09/09 01:54:51;;;;;;;;;;;19.70;49.80;;;17.67;53.98;100658.38;12255288;19;19918;-89
2022/09/09 01:59:29;;;;;;;;;;;19.90;49.90;;;17.65;53.96;100661.13;12253832;19;20276;-89
2022/09/09 02:03:34;;;;;;;;;;;19.80;49.90;;;17.64;53.83;100672.69;12251328;19;19919;-89
2022/09/09 02:07:50;;;;;;;;;;;19.60;49.80;;;17.31;53.91;100620.97;12253380;19;20401;-89
2022/09/09 02:12:14;;;;;;;;;;;19.70;49.90;;;17.61;53.98;100669.47;12250792;19;19923;-89
2022/09/09 02:16:27;;;;;;;;;;;19.50;49.80;;;17.58;53.72;100691.69;12262378;19;19951;-89
2022/09/09 02:20:32;;;;;;;;;;;19.50;49.80;;;17.48;53.80;100680.25;12265365;19;19952;-89
2022/09/09 02:24:37;;;;;;;;;;;19.40;49.80;;;17.48;53.92;100674.97;12262659;19;20016;-90
2022/09/09 02:28:55;;;;;;;;;;;19.50;49.80;;;17.34;53.82;100667.38;12264335;19;19927;-89
2022/09/09 02:32:58;;;;;;;;;;;19.40;49.80;;;17.31;53.71;100673.75;12262522;19;20294;-89
2022/09/09 02:37:15;;;;;;;;;;;19.30;49.70;;;17.32;53.96;100690.41;12264354;19;19907;-89
2022/09/09 02:41:24;;;;;;;;;;;19.20;49.70;;;17.32;53.99;100693.88;12262769;19;19967;-89
2022/09/09 02:45:31;;;;;;;;;;;19.20;49.70;;;16.63;53.81;100583.53;12261060;19;19943;-89
2022/09/09 02:49:59;;;;;;;;;;;19.30;49.70;;;16.83;53.70;100636.47;12263889;19;19922;-89
2022/09/09 02:54:07;;;;;;;;;;;19.10;49.60;;;16.98;53.99;100672.94;12260538;19;19915;-90
2022/09/09 02:58:12;;;;;;;;;;;18.90;49.60;;;16.60;53.86;100634.72;12263260;19;19922;-89
2022/09/09 03:02:15;;;;;;;;;;;18.90;49.60;;;16.95;53.98;100693.47;12259547;19;19914;-90
2022/09/09 03:06:21;;;;;;;;;;;18.80;49.70;;;16.84;53.84;100683.81;12259243;19;19939;-89
2022/09/09 03:10:29;;;;;;;;;;;19.10;49.80;;;16.27;53.92;100601.41;12264117;19;19911;-90
2022/09/09 03:14:30;;;;;;;;;;;18.80;49.70;;;16.28;54.05;100621.56;12262945;19;19934;-89
2022/09/09 03:18:34;;;;;;;;;;;18.70;49.80;;;16.71;54.11;100683.09;12261658;19;19931;-89
2022/09/09 03:22:35;;;;;;;;;;;18.60;49.70;;;16.66;54.08;100687.91;12257407;19;20238;-89
2022/09/09 03:26:37;;;;;;;;;;;18.60;49.80;;;16.58;54.29;100686.75;12256138;19;19927;-89
2022/09/09 03:30:42;;;;;;;;;;;18.50;49.80;;;16.57;54.17;100685.06;12258970;19;19982;-89
2022/09/09 03:34:46;;;;;;;;;;;18.50;50.00;;;16.53;54.06;100686.28;12260670;19;19914;-91
2022/09/09 03:38:50;;;;;;;;;;;18.80;50.10;;;16.53;54.18;100691.56;12261757;19;19919;-90
2022/09/09 03:42:52;;;;;;;;;;;18.80;50.00;;;16.53;53.99;100703.91;12257091;19;19915;-89
2022/09/09 03:46:54;;;;;;;;;;;18.40;49.90;;;16.43;54.24;100692.44;12257127;19;19919;-90
2022/09/09 03:50:57;;;;;;;;;;;18.40;49.90;;;16.41;54.13;100702.25;12259533;19;20301;-89
2022/09/09 03:54:59;;;;;;;;;;;18.50;50.00;;;16.23;54.36;100688.72;12260111;19;19919;-90
2022/09/09 03:59:01;;;;;;;;;;;18.50;50.10;;;16.00;54.16;100649.25;12259753;19;20338;-90
2022/09/09 04:03:03;;;;;;;;;;;18.20;50.00;;;16.38;54.31;100706.78;12258104;19;19930;-89
2022/09/09 04:07:06;;;;;;;;;;;18.20;50.00;;;16.21;54.14;100688.88;12255985;19;19937;-90
2022/09/09 04:11:09;;;;;;;;;;;18.40;50.00;;;16.27;54.21;100698.09;12258670;19;20242;-89
2022/09/09 04:15:13;;;;;;;;;;;18.20;49.80;;;16.16;54.43;100696.31;12259593;19;19918;-90
2022/09/09 04:19:14;;;;;;;;;;;18.10;49.80;;;16.01;54.33;100682.53;12257879;19;19951;-89
2022/09/09 04:23:19;;;;;;;;;;;18.00;49.90;;;15.86;54.36;100660.88;12253020;19;20335;-89
2022/09/09 04:27:20;;;;;;;;;;;18.30;50.10;;;16.09;54.38;100710.91;12251992;19;20333;-91
2022/09/09 04:31:23;;;;;;;;;;;18.00;50.00;;;16.12;54.37;100719.44;12253719;19;19914;-89
2022/09/09 04:35:27;;;;;;;;;;;18.40;50.20;;;16.03;54.41;100711.41;12255137;19;19918;-90
2022/09/09 04:39:29;;;;;;;;;;;18.00;50.00;;;15.69;54.52;100671.91;12253301;19;19911;-90
2022/09/09 04:43:30;;;;;;;;;;;18.00;50.00;;;15.40;54.42;100608.31;12249918;19;20345;-89
2022/09/09 04:47:34;;;;;;;;;;;17.90;50.00;;;15.55;54.43;100653.66;12255733;19;20317;-90
2022/09/09 04:51:36;;;;;;;;;;;17.90;50.00;;;15.39;54.55;100646.97;12253350;19;19923;-89
2022/09/09 04:55:38;;;;;;;;;;;17.90;50.10;;;15.70;54.49;100689.38;12255348;19;19930;-90
2022/09/09 04:59:40;;;;;;;;;;;18.10;50.40;;;15.43;54.57;100661.53;12255938;19;19959;-90
2022/09/09 05:03:42;;;;;;;;;;;17.80;50.20;;;15.32;54.44;100658.91;12249844;19;19933;-91
2022/09/09 05:07:47;;;;;;;;;;;17.80;50.20;;;15.74;54.59;100730.28;12254218;19;19914;-89
2022/09/09 05:11:50;;;;;;;;;;;18.00;50.30;;;15.32;54.62;100658.06;12253283;19;19915;-89
2022/09/09 05:16:01;;;;;;;;;;;17.70;50.20;;;15.67;54.66;100715.91;12253652;19;19915;-91
2022/09/09 05:20:04;;;;;;;;;;;17.70;50.30;;;15.46;54.78;100685.00;12254562;19;20334;-91
2022/09/09 05:24:06;;;;;;;;;;;17.70;50.40;;;15.88;54.74;100751.16;12251475;19;20234;-92
2022/09/09 05:28:08;;;;;;;;;;;18.00;50.60;;;15.60;54.63;100705.00;12250409;19;19955;-92
2022/09/09 05:32:10;;;;;;;;;;;17.50;50.50;;;15.62;54.62;100703.09;12250759;19;20252;-91
2022/09/09 05:36:16;;;;;;;;;;;17.70;50.60;;;15.44;54.81;100679.00;12254209;19;19911;-91
2022/09/09 05:40:18;;;;;;;;;;;17.80;50.60;;;15.61;54.59;100693.53;12253214;19;19919;-92
2022/09/09 05:44:20;;;;;;;;;;;17.70;50.80;;;15.62;54.85;100699.63;12251991;19;19915;-91
2022/09/09 05:48:22;;;;;;;;;;;17.80;50.80;;;15.88;54.88;100745.88;12251206;19;19957;-91
2022/09/09 05:52:25;;;;;;;;;;;17.80;50.90;;;15.80;54.82;100721.09;12249649;19;19918;-91
2022/09/09 05:56:28;;;;;;;;;;;17.80;51.00;;;15.67;54.90;100703.56;12250243;19;19910;-92
2022/09/09 06:00:31;;;;;;;;;;;18.00;51.20;;;15.56;55.05;100682.50;12252635;19;19915;-91
2022/09/09 06:04:34;;;;;;;;;;;18.00;51.30;;;15.48;54.97;100635.72;12252691;19;19931;-92
2022/09/09 06:08:38;;;;;;;;;;;18.00;51.40;;;15.83;55.17;100684.00;12255027;19;19907;-90
2022/09/09 06:12:41;;;;;;;;;;;17.90;51.40;;;15.97;54.96;100685.53;12258865;19;19951;-92
2022/09/09 06:21:00;;;;;;;;;;;18.30;51.70;;;16.37;55.09;100714.84;12250726;19;19969;-92
2022/09/09 06:25:02;;;;;;;;;;;18.40;52.00;;;16.06;55.11;100632.13;12247132;19;19935;-90
2022/09/09 06:29:04;;;;;;;;;;;18.50;51.90;;;16.74;55.36;100733.81;12250866;19;19925;-90
2022/09/09 06:33:06;;;;;;;;;;;18.80;52.10;;;16.51;55.18;100668.91;12248064;19;19911;-91
2022/09/09 06:37:09;;;;;;;;;;;18.70;52.10;;;16.78;55.25;100697.50;12264421;19;19922;-91
2022/09/09 06:41:18;;;;;;;;;;;18.80;52.20;;;16.77;55.43;100680.03;12267126;19;19911;-91
2022/09/09 06:45:20;;;;;;;;;;;19.10;52.40;;;17.24;55.11;100739.41;12261789;19;19922;-91
2022/09/09 06:49:29;;;;;;;;;;;19.20;52.60;;;17.14;55.21;100709.44;12264268;19;19915;-90
2022/09/09 06:53:37;;;;;;;;;;;19.50;52.10;;;17.27;55.24;100701.34;12261720;19;19944;-91
2022/09/09 06:57:41;;;;;;;;;;;19.40;52.40;;;17.36;55.54;100705.88;12274539;19;20301;-90
2022/09/09 07:01:51;;;;;;;;;;;19.50;52.60;;;17.67;55.35;100733.16;12289624;19;19926;-91
2022/09/09 07:05:55;;;;;;;;;;;19.60;52.30;;;17.45;55.39;100678.69;12258991;19;19919;-92
2022/09/09 07:09:58;;;;;;;;;;;19.80;52.50;;;17.78;55.24;100715.56;12259014;19;19947;-92
2022/09/09 07:14:00;;;;;;;;;;;20.00;52.10;;;17.83;55.26;100726.59;12257124;19;20230;-92
2022/09/09 07:18:05;;;;;;;;;;;19.90;52.60;;;17.98;55.21;100724.44;12261700;19;19919;-91
2022/09/09 07:22:07;;;;;;;;;;;20.30;52.70;;;18.08;55.46;100718.22;12258534;19;19907;-91
2022/09/09 07:26:12;;;;;;;;;;;20.10;52.60;;;17.84;55.41;100657.75;12256057;19;19915;-91
2022/09/09 07:30:15;;;;;;;;;;;20.30;52.10;;;18.01;55.56;100656.31;12259984;19;20246;-93
2022/09/09 07:34:18;;;;;;;;;;;20.50;52.30;;;18.41;55.68;100695.06;12245528;19;19922;-91
2022/09/09 07:38:21;;;;;;;;;;;20.50;52.70;;;18.31;55.48;100655.41;12257973;19;20321;-91
2022/09/09 07:42:23;;;;;;;;;;;20.80;52.60;;;18.55;55.62;100664.75;12252928;19;19915;-92
2022/09/09 07:46:26;;;;;;;;;;;20.90;52.50;;;18.77;55.63;100674.28;12251155;19;19911;-92
2022/09/09 07:50:28;;;;;;;;;;;21.00;52.40;;;19.65;55.57;100791.53;12253118;19;19927;-92
2022/09/09 07:54:29;;;;;;;;;;;21.20;52.50;;;19.43;55.55;100739.72;12254890;19;19915;-90
2022/09/09 07:58:33;;;;;;;;;;;21.20;52.40;;;19.14;55.69;100665.59;12251486;19;20368;-91
2022/09/09 08:02:35;;;;;;;;;;;21.50;52.30;;;19.73;55.40;100751.13;12255887;19;19923;-90
2022/09/09 08:06:39;;;;;;;;;;;21.70;52.20;;;19.80;55.65;100745.09;12258104;19;19915;-91
2022/09/09 08:10:42;;;;;;;;;;;22.00;52.50;;;19.83;55.65;100726.25;12260453;19;19915;-90
2022/09/09 08:14:44;;;;;;;;;;;22.10;52.70;;;20.02;55.81;100719.22;12261159;19;19931;-90
2022/09/09 08:18:47;;;;;;;;;;;22.20;52.70;;;20.34;55.96;100746.13;12259894;19;19914;-91
2022/09/09 08:22:50;;;;;;;;;;;22.30;52.20;;;20.46;55.53;100740.63;12254933;19;20543;-90
2022/09/09 08:26:52;;;;;;;;;;;22.70;52.40;;;20.71;55.41;100771.78;12253181;19;19906;-90
2022/09/09 08:31:06;;;;;;;;;;;22.60;52.30;;;21.09;55.50;100809.69;12255616;19;19927;-91
2022/09/09 08:35:08;;;;;;;;;;;22.70;52.10;;;20.77;55.33;100746.47;12251495;19;20356;-90
2022/09/09 08:39:12;;;;;;;;;;;22.80;51.90;;;21.18;55.25;100814.06;12251565;19;20242;-90
2022/09/09 08:43:17;;;;;;;;;;;22.90;51.80;;;20.76;55.27;100750.09;12254876;19;19923;-90
2022/09/09 08:47:33;;;;;;;;;;;23.10;51.80;;;21.18;55.32;100819.38;12253865;19;19911;-91
2022/09/09 08:51:34;;;;;;;;;;;23.20;51.70;;;20.90;55.25;100775.28;12263871;19;19926;-91
2022/09/09 08:55:48;;;;;;;;;;;23.00;51.80;;;20.80;55.10;100748.00;12260909;19;19926;-91
2022/09/09 08:59:55;;;;;;;;;;;23.00;51.90;;;20.48;55.22;100690.91;12261113;19;19911;-91
2022/09/09 09:04:19;;;;;;;;;;;23.00;51.60;;;21.02;55.38;100741.41;12250599;19;19919;-91
2022/09/09 09:08:32;;;;;;;;;;;23.10;51.90;;;21.10;55.51;100733.50;12251538;19;19919;-91
2022/09/09 09:12:40;;;;;;;;;;;23.30;52.10;;;21.31;55.47;100734.00;12250450;19;19919;-91
2022/09/09 09:17:05;;;;;;;;;;;23.30;51.90;;;21.70;55.43;100780.66;12253223;19;19910;-91
2022/09/09 09:21:41;;;;;;;;;;;23.50;51.80;;;21.62;55.15;100742.38;12249442;19;19934;-92
2022/09/09 09:25:44;;;;;;;;;;;23.70;51.70;;;21.78;55.03;100749.63;12249262;19;19919;-91
2022/09/09 09:29:49;;;;;;;;;;;23.70;51.80;;;22.13;55.08;100781.56;12245237;19;19963;-91
2022/09/09 09:33:52;;;;;;;;;;;24.00;51.70;;;22.13;55.30;100771.75;12241732;19;19933;-90
2022/09/09 09:37:55;;;;;;;;;;;24.00;51.60;;;22.57;55.02;100822.19;12246460;19;19955;-91
2022/09/09 09:42:00;;;;;;;;;;;24.10;51.50;;;22.57;55.36;100805.41;12246203;19;19927;-92
2022/09/09 09:46:17;;;;;;;;;;;24.30;51.50;;;22.79;54.92;100815.47;12247686;19;20560;-89
2022/09/09 09:50:20;;;;;;;;;;;24.40;51.50;;;22.77;55.11;100777.53;12249891;19;19947;-91
2022/09/09 09:54:37;;;;;;;;;;;24.60;51.60;;;23.17;54.86;100799.94;12253175;19;19923;-91
2022/09/09 09:58:49;;;;;;;;;;;24.70;51.50;;;23.36;55.07;100820.09;12242168;19;19922;-91
2022/09/09 10:03:21;;;;;;;;;;;24.90;51.30;;;22.90;54.78;100731.75;12250634;19;19915;-91
2022/09/09 10:07:23;;;;;;;;;;;25.00;51.20;;;22.91;54.60;100720.13;12249744;19;19929;-91
2022/09/09 10:11:45;;;;;;;;;;;25.10;51.20;;;23.49;54.97;100784.91;12248447;19;19918;-91
2022/09/09 10:16:09;;;;;;;;;;;25.30;51.20;;;23.77;55.03;100807.59;12254051;19;19918;-90
2022/09/09 10:20:35;;;;;;;;;;;25.30;51.00;;;23.99;55.10;100807.91;12249658;19;19919;-90
2022/09/09 10:24:40;;;;;;;;;;;25.50;51.20;;;24.14;55.00;100808.88;12246876;19;19911;-89
2022/09/09 10:28:57;;;;;;;;;;;25.70;51.30;;;24.31;54.47;100804.31;12247257;19;19918;-89
2022/09/09 10:33:37;;;;;;;;;;;25.80;51.20;;;24.48;55.00;100808.59;12246093;19;19989;-89
2022/09/09 10:38:06;;;;;;;;;;;26.00;51.30;;;24.06;54.85;100713.66;12253801;19;19922;-90
2022/09/09 10:42:14;;;;;;;;;;;26.10;51.30;;;24.41;54.47;100758.69;12254855;19;20334;-89
2022/09/09 10:46:43;;;;;;;;;;;26.30;50.60;;;24.89;54.05;100815.56;12255988;19;19949;-90
2022/09/09 10:51:05;;;;;;;;;;;26.40;50.60;;;24.56;54.13;100767.66;12263716;19;20428;-91
2022/09/09 10:55:25;;;;;;;;;;;26.60;50.60;;;24.48;53.83;100751.69;12259250;19;19923;-90
2022/09/09 10:59:35;;;;;;;;;;;26.60;50.60;;;24.42;53.58;100744.34;12259684;19;19911;-90
2022/09/09 11:03:39;;;;;;;;;;;26.60;50.10;;;24.36;54.18;100739.69;12250779;19;20370;-89
2022/09/09 11:07:56;;;;;;;;;;;26.90;50.20;;;24.57;53.98;100771.16;12255113;19;19914;-89
2022/09/09 11:12:03;;;;;;;;;;;26.60;50.20;;;24.90;53.67;100815.41;12258317;19;19936;-90
2022/09/09 11:16:17;;;;;;;;;;;26.60;50.10;;;24.61;53.44;100749.28;12262419;19;19926;-90
2022/09/09 11:20:18;;;;;;;;;;;26.60;50.20;;;24.69;53.36;100751.91;12265240;19;19919;-90
2022/09/09 11:24:35;;;;;;;;;;;26.70;49.90;;;25.06;53.63;100811.78;12263282;19;19926;-91
2022/09/09 11:28:36;;;;;;;;;;;26.70;49.90;;;25.07;53.82;100818.78;12262117;19;19996;-90
2022/09/09 11:33:02;;;;;;;;;;;26.80;50.00;;;25.09;53.43;100815.94;12259323;19;19979;-90
2022/09/09 11:37:59;;;;;;;;;;;26.70;50.00;;;25.09;53.82;100816.78;12262643;19;19948;-90
2022/09/09 11:42:07;;;;;;;;;;;26.70;49.90;;;25.15;53.67;100809.91;12252739;19;19922;-90
2022/09/09 11:46:10;;;;;;;;;;;26.80;50.00;;;25.17;53.55;100798.03;12254924;19;19919;-91
2022/09/09 11:50:14;;;;;;;;;;;26.80;49.70;;;25.31;53.57;100812.47;12257707;19;19930;-89
2022/09/09 11:54:31;;;;;;;;;;;26.80;49.80;;;25.34;53.32;100792.56;12258695;19;19981;-90
2022/09/09 11:58:45;;;;;;;;;;;26.90;49.60;;;25.33;53.44;100764.16;12259453;19;19936;-90
2022/09/09 12:02:50;;;;;;;;;;;27.00;49.70;;;25.53;53.17;100786.72;12243627;19;19923;-89
2022/09/09 12:07:02;;;;;;;;;;;27.10;49.70;;;25.55;53.03;100762.47;12256811;19;19914;-89
2022/09/09 12:11:04;;;;;;;;;;;27.20;49.60;;;25.77;53.15;100779.47;12254559;19;19932;-90
2022/09/09 12:15:08;;;;;;;;;;;27.30;49.70;;;25.93;52.98;100787.34;12256866;19;20012;-90
2022/09/09 12:19:18;;;;;;;;;;;27.40;49.10;;;25.64;53.02;100729.28;12257314;19;19910;-90
2022/09/09 12:23:37;;;;;;;;;;;27.50;49.30;;;25.90;52.82;100752.13;12254552;19;20373;-91
2022/09/09 12:28:01;;;;;;;;;;;27.50;49.00;;;26.03;52.82;100779.88;12252454;19;19919;-91
2022/09/09 12:32:10;;;;;;;;;;;27.60;49.10;;;25.89;52.14;100767.31;12251290;19;19923;-91
2022/09/09 12:36:19;;;;;;;;;;;27.60;49.10;;;25.89;52.29;100767.31;12254497;19;19907;-91
2022/09/09 12:40:29;;;;;;;;;;;27.50;48.70;;;25.89;52.33;100758.47;12251617;19;20330;-91
2022/09/09 12:44:32;;;;;;;;;;;27.50;48.80;;;25.85;52.12;100744.63;12249867;19;19975;-91
2022/09/09 12:48:40;;;;;;;;;;;27.50;49.40;;;25.89;52.14;100747.75;12253635;19;20259;-91
2022/09/09 12:52:41;;;;;;;;;;;27.50;48.70;;;25.89;52.03;100758.47;12250826;19;19936;-90
2022/09/09 12:56:46;;;;;;;;;;;27.60;49.00;;;25.82;52.41;100736.94;12253634;19;19930;-90
2022/09/09 13:00:53;;;;;;;;;;;27.50;48.80;;;25.94;52.30;100753.38;12251653;19;20326;-90
2022/09/09 13:04:55;;;;;;;;;;;27.50;48.60;;;25.87;51.64;100747.09;12250170;19;19922;-90
2022/09/09 13:09:00;;;;;;;;;;;27.50;49.00;;;25.79;51.76;100745.34;12251796;19;20326;-90
2022/09/09 13:13:01;;;;;;;;;;;27.50;48.40;;;25.74;51.72;100740.53;12248173;19;19923;-90
2022/09/09 13:17:04;;;;;;;;;;;27.40;48.50;;;25.80;51.83;100750.50;12252825;19;20358;-90
2022/09/09 13:21:06;;;;;;;;;;;27.50;48.50;;;25.90;51.73;100754.78;12249966;19;20329;-90
2022/09/09 13:25:11;;;;;;;;;;;27.50;48.30;;;25.93;51.66;100743.72;12249124;19;20243;-90
2022/09/09 13:29:17;;;;;;;;;;;27.50;48.60;;;25.98;51.77;100744.81;12250333;19;19942;-90
2022/09/09 13:33:22;;;;;;;;;;;27.50;48.30;;;25.84;51.38;100705.50;12246322;19;19923;-90
2022/09/09 13:37:38;;;;;;;;;;;27.60;48.50;;;25.94;51.80;100726.63;12250307;19;19932;-90
2022/09/09 13:41:44;;;;;;;;;;;27.50;47.90;;;25.64;51.56;100688.31;12243829;19;19938;-89
2022/09/09 13:45:56;;;;;;;;;;;27.50;48.20;;;25.72;51.34;100712.31;12249124;19;19923;-90
2022/09/09 13:49:57;;;;;;;;;;;27.50;47.90;;;25.82;51.69;100731.59;12244511;19;19937;-90
2022/09/09 13:54:00;;;;;;;;;;;27.40;48.10;;;25.70;51.57;100719.69;12242234;19;19946;-91
2022/09/09 13:58:05;;;;;;;;;;;27.40;47.60;;;25.78;51.31;100744.50;12246427;19;19915;-91
2022/09/09 14:02:07;;;;;;;;;;;27.30;47.60;;;25.41;51.29;100675.00;12246309;19;19915;-90
2022/09/09 14:06:10;;;;;;;;;;;27.60;47.80;;;25.35;51.12;100665.88;12248110;19;19907;-90
2022/09/09 14:10:12;;;;;;;;;;;27.50;47.80;;;25.58;50.92;100708.63;12247612;19;20305;-90
2022/09/09 14:14:14;;;;;;;;;;;27.60;48.10;;;25.27;51.25;100655.28;12246349;19;20381;-91
2022/09/09 14:18:16;;;;;;;;;;;27.40;47.80;;;25.32;51.11;100666.25;12247849;19;19945;-91
2022/09/09 14:22:17;;;;;;;;;;;27.50;47.70;;;25.46;50.93;100694.00;12247945;19;19935;-90
2022/09/09 14:26:23;;;;;;;;;;;27.60;47.90;;;25.24;51.00;100639.59;12247441;19;19918;-90
2022/09/09 14:30:24;;;;;;;;;;;27.40;47.80;;;25.40;51.14;100671.50;12247137;19;20334;-90
2022/09/09 14:34:26;;;;;;;;;;;27.40;47.90;;;25.35;51.15;100663.22;12241748;19;19940;-89
2022/09/09 14:38:39;;;;;;;;;;;27.40;47.80;;;25.16;51.07;100627.16;12249261;19;19930;-90
2022/09/09 14:42:41;;;;;;;;;;;27.40;47.80;;;25.40;50.90;100658.16;12245038;19;19915;-89
2022/09/09 14:46:42;;;;;;;;;;;27.50;47.80;;;25.60;51.14;100680.66;12242337;19;19919;-89
2022/09/09 14:50:44;;;;;;;;;;;27.50;47.70;;;25.43;51.17;100652.44;12245852;19;19915;-90
2022/09/09 14:54:45;;;;;;;;;;;27.40;47.60;;;25.57;50.76;100681.03;12246439;19;20250;-90
2022/09/09 14:58:48;;;;;;;;;;;27.40;47.60;;;25.06;51.04;100597.16;12250361;19;19918;-89
2022/09/09 15:02:52;;;;;;;;;;;27.40;47.50;;;25.68;50.79;100705.66;12245113;19;20323;-91
2022/09/09 15:06:54;;;;;;;;;;;27.40;47.50;;;25.33;51.21;100639.34;12244717;19;19915;-89
2022/09/09 15:11:01;;;;;;;;;;;27.40;47.60;;;25.33;50.73;100643.84;12246589;19;19911;-89
2022/09/09 15:15:03;;;;;;;;;;;27.40;47.30;;;25.41;50.77;100657.16;12249576;19;19940;-90
2022/09/09 15:19:14;;;;;;;;;;;27.40;47.00;;;25.45;50.79;100690.53;12247859;19;20547;-90
2022/09/09 15:23:16;;;;;;;;;;;27.40;46.90;;;25.24;50.77;100669.84;12253075;19;19911;-89
2022/09/09 15:27:18;;;;;;;;;;;27.60;47.30;;;25.33;50.58;100681.28;12257720;19;19907;-89
2022/09/09 15:31:24;;;;;;;;;;;27.30;47.20;;;25.32;50.68;100671.59;12260213;19;19930;-89
2022/09/09 15:35:25;;;;;;;;;;;27.50;47.30;;;25.02;50.41;100628.75;12261184;19;19975;-90
2022/09/09 15:39:27;;;;;;;;;;;27.30;47.50;;;25.14;50.78;100648.69;12259470;19;19919;-91
2022/09/09 15:43:28;;;;;;;;;;;27.30;47.30;;;25.05;50.62;100639.09;12252048;19;20250;-90
2022/09/09 15:47:30;;;;;;;;;;;27.20;47.50;;;25.16;50.67;100657.38;12253403;19;20379;-90
2022/09/09 15:51:32;;;;;;;;;;;27.20;47.70;;;24.80;50.73;100614.44;12254048;19;19911;-89
2022/09/09 15:55:33;;;;;;;;;;;27.20;47.90;;;25.08;50.65;100665.44;12260957;19;19919;-89
2022/09/09 15:59:35;;;;;;;;;;;27.10;48.00;;;24.94;50.78;100668.91;12259182;19;20028;-90
2022/09/09 16:03:38;;;;;;;;;;;27.00;47.90;;;24.79;50.84;100676.03;12253903;19;19923;-89
2022/09/09 16:07:42;;;;;;;;;;;27.10;47.70;;;24.59;50.74;100671.19;12252462;19;19907;-90
2022/09/09 16:11:44;;;;;;;;;;;27.10;47.90;;;24.38;50.94;100668.28;12256324;19;20337;-90
2022/09/09 16:15:53;;;;;;;;;;;26.60;47.50;;;23.86;51.06;100621.72;12258780;19;19930;-89
2022/09/09 16:19:55;;;;;;;;;;;26.60;47.50;;;23.75;51.18;100643.44;12255258;19;19947;-90
2022/09/09 16:23:59;;;;;;;;;;;26.40;47.60;;;23.83;50.91;100702.91;12250534;19;20337;-90
2022/09/09 16:28:01;;;;;;;;;;;26.20;46.90;;;23.34;50.89;100671.00;12254492;19;20329;-89
2022/09/09 16:32:02;;;;;;;;;;;26.00;46.80;;;23.81;50.73;100782.25;12251356;19;19919;-90
2022/09/09 16:36:10;;;;;;;;;;;25.80;46.60;;;23.49;50.96;100768.94;12252104;19;19915;-90
2022/09/09 16:40:11;;;;;;;;;;;25.50;46.30;;;23.37;50.95;100766.59;12251577;19;19939;-90
2022/09/09 16:44:15;;;;;;;;;;;25.30;46.50;;;23.23;50.71;100750.47;12247785;19;19965;-90
2022/09/09 16:48:17;;;;;;;;;;;25.40;46.70;;;22.99;50.74;100716.66;12252299;19;20028;-90
2022/09/09 16:52:18;;;;;;;;;;;25.10;46.50;;;22.97;50.69;100752.25;12252846;19;19923;-92
2022/09/09 16:56:24;;;;;;;;;;;24.90;46.40;;;22.92;50.80;100754.56;12251357;19;19919;-91
2022/09/09 17:00:29;;;;;;;;;;;24.80;46.70;;;22.72;50.79;100745.22;12247891;19;23166;-90
2022/09/09 17:04:31;;;;;;;;;;;24.70;46.50;;;22.35;51.02;100687.91;12250963;19;19915;-90
2022/09/09 17:08:33;;;;;;;;;;;24.60;46.70;;;22.18;50.90;100672.88;12252280;19;19935;-90
2022/09/09 17:12:35;;;;;;;;;;;24.40;46.50;;;21.82;50.82;100649.13;12252464;19;19934;-90
2022/09/09 17:16:39;;;;;;;;;;;24.30;46.70;;;22.25;50.81;100735.09;12252745;19;20322;-91
2022/09/09 17:20:41;;;;;;;;;;;24.30;46.60;;;22.28;51.11;100766.72;12252503;19;19915;-90
2022/09/09 17:24:44;;;;;;;;;;;24.20;46.50;;;21.70;50.69;100672.50;12252179;19;19915;-91
2022/09/09 17:28:46;;;;;;;;;;;24.30;46.70;;;21.83;50.81;100704.78;12250054;19;19923;-90
2022/09/09 17:32:47;;;;;;;;;;;23.80;46.60;;;21.23;50.99;100624.22;12251284;19;19938;-90
2022/09/09 17:36:49;;;;;;;;;;;23.80;46.80;;;21.19;51.18;100639.59;12254136;19;19926;-90
2022/09/09 17:41:07;;;;;;;;;;;23.80;46.90;;;21.60;50.75;100698.34;12253724;19;19944;-90
2022/09/09 17:45:09;;;;;;;;;;;23.70;47.10;;;21.53;50.88;100686.69;12252714;19;20428;-89
2022/09/09 17:49:17;;;;;;;;;;;23.70;47.20;;;21.99;50.98;100762.53;12254330;19;19917;-89
2022/09/09 17:53:18;;;;;;;;;;;23.60;47.20;;;21.93;50.88;100757.88;12252354;19;19935;-91
2022/09/09 17:57:22;;;;;;;;;;;23.60;47.20;;;21.19;51.13;100676.78;12253280;19;20273;-90
2022/09/09 18:01:26;;;;;;;;;;;23.40;47.20;;;21.45;50.97;100742.44;12253102;19;19931;-90
2022/09/09 18:05:28;;;;;;;;;;;23.60;47.20;;;20.75;51.17;100669.63;12250157;19;19919;-90
2022/09/09 18:09:31;;;;;;;;;;;23.20;47.30;;;21.18;51.06;100776.88;12252820;19;19944;-91
2022/09/09 18:13:33;;;;;;;;;;;23.10;47.30;;;20.75;50.94;100749.25;12248773;19;19923;-90
2022/09/09 18:17:34;;;;;;;;;;;23.30;47.50;;;20.96;51.07;100809.22;12253369;19;19924;-91
2022/09/09 18:21:36;;;;;;;;;;;22.80;47.40;;;20.67;51.48;100791.63;12251756;19;20356;-90
2022/09/09 18:25:38;;;;;;;;;;;22.60;47.50;;;20.63;51.62;100805.34;12251423;19;19947;-90
2022/09/09 18:29:40;;;;;;;;;;;22.50;47.80;;;20.48;51.81;100794.38;12252109;19;19932;-90
2022/09/09 18:33:44;;;;;;;;;;;22.70;47.90;;;20.45;51.91;100794.66;12248696;19;19923;-89